createdAt,value
2023-03-01T00:01:58.834Z,-0.74
2023-03-01T00:04:29.044Z,-0.73
2023-03-01T00:06:58.218Z,-0.73
2023-03-01T00:09:27.209Z,-0.74
2023-03-01T00:11:56.390Z,-0.73
2023-03-01T00:14:25.184Z,-0.70
2023-03-01T00:16:55.758Z,-0.71
2023-03-01T00:19:24.566Z,-0.73
2023-03-01T00:21:53.683Z,-0.72
2023-03-01T00:24:22.433Z,-0.70
2023-03-01T00:26:56.301Z,-0.68
2023-03-01T00:29:26.035Z,-0.69
2023-03-01T00:31:56.473Z,-0.68
2023-03-01T00:34:25.318Z,-0.69
2023-03-01T00:36:54.399Z,-0.70
2023-03-01T00:39:23.168Z,-0.69
2023-03-01T00:41:52.295Z,-0.70
2023-03-01T00:44:21.058Z,-0.68
2023-03-01T00:46:50.275Z,-0.69
2023-03-01T00:49:20.423Z,-0.72
2023-03-01T00:51:49.508Z,-0.70
2023-03-01T00:54:18.407Z,-0.72
2023-03-01T00:56:47.601Z,-0.69
2023-03-01T00:59:16.396Z,-0.68
2023-03-01T01:01:45.524Z,-0.69
2023-03-01T01:04:15.652Z,-0.67
2023-03-01T01:06:49.060Z,-0.69
2023-03-01T01:09:19.970Z,-0.68
2023-03-01T01:11:52.475Z,-0.68
2023-03-01T01:14:22.368Z,-0.69
2023-03-01T01:16:52.185Z,-0.70
2023-03-01T01:19:21.392Z,-0.73
2023-03-01T01:21:52.678Z,-0.74
2023-03-01T01:24:21.827Z,-0.77
2023-03-01T01:26:51.570Z,-0.76
2023-03-01T01:29:20.447Z,-0.78
2023-03-01T01:31:49.650Z,-0.77
2023-03-01T01:34:22.399Z,-0.74
2023-03-01T01:36:55.679Z,-0.74
2023-03-01T01:39:24.950Z,-0.74
2023-03-01T01:41:54.080Z,-0.72
2023-03-01T01:44:27.001Z,-0.71
2023-03-01T01:47:00.733Z,-0.71
2023-03-01T01:49:37.592Z,-0.70
2023-03-01T01:52:15.717Z,-0.82
2023-03-01T01:54:52.499Z,-0.71
2023-03-01T01:57:27.740Z,-0.70
2023-03-01T02:00:05.269Z,-0.70
2023-03-01T02:02:44.938Z,-0.70
2023-03-01T02:05:19.898Z,-0.70
2023-03-01T02:07:51.065Z,-0.65
2023-03-01T02:10:23.544Z,-0.60
2023-03-01T02:12:54.097Z,-0.57
2023-03-01T02:15:23.650Z,-0.51
2023-03-01T02:17:54.391Z,-0.50
2023-03-01T02:20:34.747Z,-0.46
2023-03-01T02:23:06.817Z,-0.47
2023-03-01T02:25:48.708Z,-0.47
2023-03-01T02:28:31.531Z,-0.48
2023-03-01T02:31:20.536Z,-0.53
2023-03-01T02:33:50.444Z,-0.56
2023-03-01T02:36:25.821Z,-0.50
2023-03-01T02:39:00.378Z,-0.51
2023-03-01T02:41:34.487Z,-0.51
2023-03-01T02:44:05.343Z,-0.53
2023-03-01T02:46:34.452Z,-0.54
2023-03-01T02:49:03.676Z,-0.53
2023-03-01T02:51:57.925Z,-0.52
2023-03-01T02:54:35.532Z,-0.55
2023-03-01T02:57:05.307Z,-0.59
2023-03-01T02:59:41.845Z,-0.57
2023-03-01T03:02:36.984Z,-0.51
2023-03-01T03:05:31.676Z,-0.49
2023-03-01T03:08:02.950Z,-0.45
2023-03-01T03:10:40.553Z,-0.41
2023-03-01T03:13:12.325Z,-0.43
2023-03-01T03:15:45.214Z,-0.42
2023-03-01T03:18:18.420Z,-0.43
2023-03-01T03:20:48.715Z,-0.41
2023-03-01T03:23:17.481Z,-0.41
2023-03-01T03:25:46.643Z,-0.43
2023-03-01T03:28:16.901Z,-0.43
2023-03-01T03:30:47.823Z,-0.44
2023-03-01T03:33:16.737Z,-0.45
2023-03-01T03:35:49.817Z,-0.46
2023-03-01T03:38:22.945Z,-0.50
2023-03-01T03:41:03.323Z,-0.56
2023-03-01T03:43:34.834Z,-0.59
2023-03-01T03:46:07.132Z,-0.59
2023-03-01T03:48:38.129Z,-0.56
2023-03-01T03:51:07.816Z,-0.57
2023-03-01T03:53:36.814Z,-0.54
2023-03-01T03:56:07.065Z,-0.47
2023-03-01T03:58:36.280Z,-0.45
2023-03-01T04:01:07.603Z,-0.40
2023-03-01T04:03:37.082Z,-0.39
2023-03-01T04:06:07.110Z,-0.41
2023-03-01T04:08:35.893Z,-0.45
2023-03-01T04:11:21.666Z,-0.42
2023-03-01T04:13:51.566Z,-0.34
2023-03-01T04:16:22.603Z,-0.31
2023-03-01T04:18:51.644Z,-0.31
2023-03-01T04:21:21.326Z,-0.25
2023-03-01T04:23:53.540Z,-0.24
2023-03-01T04:26:23.231Z,-0.23
2023-03-01T04:28:51.998Z,-0.29
2023-03-01T04:31:23.440Z,-0.26
2023-03-01T04:33:55.523Z,-0.24
2023-03-01T04:36:27.774Z,-0.21
2023-03-01T04:38:57.976Z,-0.24
2023-03-01T04:41:27.915Z,-0.20
2023-03-01T04:43:56.680Z,-0.17
2023-03-01T04:46:27.470Z,-0.14
2023-03-01T04:48:56.289Z,-0.12
2023-03-01T04:51:25.435Z,-0.09
2023-03-01T04:53:54.235Z,-0.12
2023-03-01T04:56:24.015Z,-0.14
2023-03-01T04:58:56.023Z,-0.13
2023-03-01T05:01:26.484Z,-0.09
2023-03-01T05:03:55.655Z,-0.10
2023-03-01T05:06:24.692Z,-0.11
2023-03-01T05:08:53.462Z,-0.06
2023-03-01T05:11:22.524Z,-0.02
2023-03-01T05:13:55.962Z,-0.09
2023-03-01T05:16:26.553Z,-0.05
2023-03-01T05:18:56.550Z,-0.05
2023-03-01T05:21:25.925Z,-0.05
2023-03-01T05:23:54.754Z,-0.04
2023-03-01T05:26:29.655Z,-0.03
2023-03-01T05:29:00.244Z,-0.03
2023-03-01T05:31:31.884Z,-0.02
2023-03-01T05:34:00.986Z,-0.03
2023-03-01T05:36:30.450Z,-0.01
2023-03-01T05:38:59.516Z,0.02
2023-03-01T05:41:29.001Z,0.05
2023-03-01T05:43:57.778Z,0.05
2023-03-01T05:46:26.827Z,0.10
2023-03-01T05:48:57.188Z,0.11
2023-03-01T05:51:27.166Z,0.10
2023-03-01T05:53:55.929Z,0.15
2023-03-01T05:56:25.020Z,0.20
2023-03-01T05:58:53.887Z,0.20
2023-03-01T06:01:23.010Z,0.22
2023-03-01T06:03:51.787Z,0.26
2023-03-01T06:06:22.225Z,0.29
2023-03-01T06:08:51.244Z,0.32
2023-03-01T06:11:20.489Z,0.35
2023-03-01T06:13:49.514Z,0.37
2023-03-01T06:16:18.639Z,0.38
2023-03-01T06:18:47.471Z,0.44
2023-03-01T06:21:16.667Z,0.52
2023-03-01T06:23:46.816Z,0.57
2023-03-01T06:26:16.004Z,0.61
2023-03-01T06:28:47.161Z,0.66
2023-03-01T06:31:16.692Z,0.70
2023-03-01T06:33:46.083Z,0.77
2023-03-01T06:36:15.310Z,0.83
2023-03-01T06:38:44.245Z,0.94
2023-03-01T06:41:14.788Z,0.96
2023-03-01T06:43:43.718Z,0.99
2023-03-01T06:46:12.805Z,0.97
2023-03-01T06:48:41.944Z,1.04
2023-03-01T06:51:10.981Z,1.07
2023-03-01T06:53:39.860Z,1.10
2023-03-01T06:56:09.164Z,1.17
2023-03-01T06:58:39.319Z,1.23
2023-03-01T07:01:09.404Z,1.30
2023-03-01T07:03:38.201Z,1.35
2023-03-01T07:06:07.867Z,1.45
2023-03-01T07:08:36.657Z,1.47
2023-03-01T07:11:06.790Z,1.61
2023-03-01T07:13:35.639Z,1.71
2023-03-01T07:16:07.089Z,1.78
2023-03-01T07:18:36.004Z,1.86
2023-03-01T07:21:09.256Z,1.98
2023-03-01T07:23:38.141Z,2.08
2023-03-01T07:26:07.831Z,2.29
2023-03-01T07:28:39.639Z,2.43
2023-03-01T07:31:10.144Z,2.51
2023-03-01T07:33:38.951Z,2.57
2023-03-01T07:36:09.245Z,2.71
2023-03-01T07:38:38.107Z,2.78
2023-03-01T07:41:07.926Z,2.88
2023-03-01T07:43:36.896Z,3.02
2023-03-01T07:46:07.213Z,3.09
2023-03-01T07:48:37.567Z,3.22
2023-03-01T07:51:08.906Z,3.27
2023-03-01T07:53:37.867Z,3.28
2023-03-01T07:56:09.813Z,3.40
2023-03-01T07:58:41.540Z,3.52
2023-03-01T08:01:13.975Z,3.59
2023-03-01T08:03:44.688Z,3.70
2023-03-01T08:06:16.785Z,3.86
2023-03-01T08:08:46.511Z,3.92
2023-03-01T08:11:17.460Z,4.04
2023-03-01T08:13:51.446Z,4.15
2023-03-01T08:16:21.862Z,4.25
2023-03-01T08:18:52.076Z,4.36
2023-03-01T08:21:21.610Z,4.38
2023-03-01T08:23:50.469Z,4.62
2023-03-01T08:26:21.891Z,4.82
2023-03-01T08:28:52.200Z,5.09
2023-03-01T08:31:24.343Z,5.30
2023-03-01T08:33:58.882Z,5.54
2023-03-01T08:36:31.127Z,5.52
2023-03-01T08:39:00.833Z,5.65
2023-03-01T08:41:30.443Z,5.76
2023-03-01T08:44:00.596Z,5.83
2023-03-01T08:46:32.509Z,5.83
2023-03-01T08:49:05.387Z,5.92
2023-03-01T08:51:37.699Z,5.84
2023-03-01T08:54:07.711Z,5.90
2023-03-01T08:56:36.897Z,6.12
2023-03-01T08:59:06.234Z,6.11
2023-03-01T09:01:35.668Z,6.15
2023-03-01T09:04:06.479Z,6.18
2023-03-01T09:06:36.389Z,6.26
2023-03-01T09:09:07.272Z,6.47
2023-03-01T09:11:36.400Z,6.62
2023-03-01T09:14:08.358Z,6.82
2023-03-01T09:16:37.627Z,7.13
2023-03-01T09:19:07.834Z,7.36
2023-03-01T09:21:40.454Z,7.89
2023-03-01T09:24:16.578Z,8.33
2023-03-01T09:26:48.876Z,8.48
2023-03-01T09:29:19.012Z,8.78
2023-03-01T09:31:48.358Z,9.02
2023-03-01T09:34:24.063Z,9.26
2023-03-01T09:36:53.270Z,9.26
2023-03-01T09:39:22.901Z,8.95
2023-03-01T09:42:03.202Z,8.59
2023-03-01T09:44:42.351Z,8.36
2023-03-01T09:47:20.586Z,8.37
2023-03-01T09:50:02.411Z,8.38
2023-03-01T09:52:42.960Z,8.55
2023-03-01T09:55:16.235Z,8.92
2023-03-01T09:57:54.606Z,9.47
2023-03-01T10:00:39.000Z,9.82
2023-03-01T10:03:19.041Z,10.43
2023-03-01T10:06:02.039Z,10.81
2023-03-01T10:08:44.483Z,11.62
2023-03-01T10:11:25.364Z,12.04
2023-03-01T10:14:05.373Z,12.44
2023-03-01T10:16:48.913Z,12.95
2023-03-01T10:19:30.448Z,13.43
2023-03-01T10:22:06.311Z,13.83
2023-03-01T10:24:39.012Z,14.16
2023-03-01T10:27:19.564Z,14.14
2023-03-01T10:29:57.360Z,14.18
2023-03-01T10:32:27.119Z,14.43
2023-03-01T10:34:56.404Z,14.68
2023-03-01T10:37:28.360Z,14.71
2023-03-01T10:40:00.744Z,14.56
2023-03-01T10:42:33.686Z,14.78
2023-03-01T10:45:28.091Z,15.27
2023-03-01T10:48:12.761Z,15.68
2023-03-01T10:50:43.834Z,15.99
2023-03-01T10:53:31.784Z,16.27
2023-03-01T10:56:05.920Z,16.96
2023-03-01T10:58:36.889Z,17.45
2023-03-01T11:01:08.751Z,17.99
2023-03-01T11:03:40.009Z,18.03
2023-03-01T11:06:24.237Z,18.39
2023-03-01T11:08:55.201Z,18.42
2023-03-01T11:11:34.155Z,18.77
2023-03-01T11:14:25.126Z,18.84
2023-03-01T11:17:04.655Z,19.72
2023-03-01T11:19:34.900Z,19.88
2023-03-01T11:22:14.099Z,20.74
2023-03-01T11:25:00.101Z,21.76
2023-03-01T11:27:44.004Z,22.26
2023-03-01T11:30:22.628Z,22.70
2023-03-01T11:33:07.384Z,22.64
2023-03-01T11:35:44.297Z,23.09
2023-03-01T11:38:24.357Z,23.34
2023-03-01T11:41:03.920Z,23.24
2023-03-01T11:43:46.963Z,23.06
2023-03-01T11:46:49.742Z,23.02
2023-03-01T11:50:06.304Z,22.06
2023-03-01T11:52:51.132Z,21.37
2023-03-01T11:55:53.997Z,21.95
2023-03-01T11:59:05.229Z,22.99
2023-03-01T12:01:53.966Z,23.30
2023-03-01T12:04:55.224Z,23.53
2023-03-01T12:07:38.635Z,23.86
2023-03-01T12:10:26.154Z,25.01
2023-03-01T12:13:25.842Z,25.48
2023-03-01T12:16:38.331Z,25.31
2023-03-01T12:19:36.757Z,25.45
2023-03-01T12:22:27.266Z,25.95
2023-03-01T12:25:23.000Z,26.01
2023-03-01T12:28:25.179Z,26.07
2023-03-01T12:31:18.924Z,24.83
2023-03-01T12:34:03.779Z,22.22
2023-03-01T12:37:13.434Z,18.66
2023-03-01T12:39:59.768Z,16.13
2023-03-01T12:42:41.528Z,14.35
2023-03-01T12:45:43.603Z,13.36
2023-03-01T12:48:36.488Z,12.43
2023-03-01T12:51:12.871Z,11.83
2023-03-01T12:53:47.397Z,11.35
2023-03-01T12:56:22.155Z,11.00
2023-03-01T12:59:06.205Z,10.68
2023-03-01T13:01:49.142Z,10.41
2023-03-01T13:04:42.551Z,10.29
2023-03-01T13:07:27.071Z,10.13
2023-03-01T13:10:16.469Z,9.92
2023-03-01T13:12:55.392Z,9.65
2023-03-01T13:15:30.461Z,9.57
2023-03-01T13:18:01.567Z,9.57
2023-03-01T13:20:47.860Z,9.42
2023-03-01T13:23:29.182Z,9.35
2023-03-01T13:26:15.873Z,9.34
2023-03-01T13:29:02.523Z,9.17
2023-03-01T13:32:05.735Z,9.21
2023-03-01T13:35:01.903Z,9.19
2023-03-01T13:37:36.985Z,9.21
2023-03-01T13:41:01.273Z,9.27
2023-03-01T13:43:34.648Z,9.36
2023-03-01T13:46:12.237Z,9.38
2023-03-01T13:48:42.424Z,9.27
2023-03-01T13:51:14.535Z,9.14
2023-03-01T13:53:49.769Z,8.99
2023-03-01T13:56:24.002Z,8.87
2023-03-01T13:58:57.135Z,8.84
2023-03-01T14:01:31.520Z,8.80
2023-03-01T14:04:02.255Z,8.85
2023-03-01T14:06:33.772Z,8.87
2023-03-01T14:09:16.910Z,8.88
2023-03-01T14:12:25.483Z,8.85
2023-03-01T14:15:04.566Z,8.83
2023-03-01T14:18:01.709Z,8.84
2023-03-01T14:20:36.431Z,8.83
2023-03-01T14:23:15.213Z,8.83
2023-03-01T14:25:53.177Z,8.87
2023-03-01T14:28:27.348Z,8.84
2023-03-01T14:30:58.871Z,8.81
2023-03-01T14:33:31.107Z,8.78
2023-03-01T14:36:07.164Z,8.74
2023-03-01T14:38:38.599Z,8.71
2023-03-01T14:41:12.341Z,8.72
2023-03-01T14:43:47.972Z,8.69
2023-03-01T14:46:24.266Z,8.70
2023-03-01T14:48:55.400Z,8.68
2023-03-01T14:51:25.338Z,8.60
2023-03-01T14:53:54.868Z,8.61
2023-03-01T14:56:25.302Z,8.61
2023-03-01T14:58:55.144Z,8.56
2023-03-01T15:01:24.568Z,8.53
2023-03-01T15:03:56.740Z,8.51
2023-03-01T15:06:26.411Z,8.41
2023-03-01T15:08:58.297Z,8.40
2023-03-01T15:11:32.978Z,8.34
2023-03-01T15:14:02.178Z,8.27
2023-03-01T15:16:35.609Z,8.24
2023-03-01T15:19:07.848Z,8.13
2023-03-01T15:21:39.957Z,8.07
2023-03-01T15:24:21.426Z,8.02
2023-03-01T15:27:02.997Z,7.94
2023-03-01T15:29:39.142Z,7.91
2023-03-01T15:32:27.945Z,7.85
2023-03-01T15:34:57.138Z,7.84
2023-03-01T15:37:49.602Z,7.86
2023-03-01T15:40:25.846Z,7.84
2023-03-01T15:42:57.376Z,7.75
2023-03-01T15:45:29.787Z,7.67
2023-03-01T15:48:05.487Z,7.65
2023-03-01T15:50:40.967Z,7.64
2023-03-01T15:53:15.916Z,7.53
2023-03-01T15:55:44.934Z,7.43
2023-03-01T15:58:19.934Z,7.36
2023-03-01T16:01:00.730Z,7.32
2023-03-01T16:03:31.129Z,7.26
2023-03-01T16:05:59.970Z,7.15
2023-03-01T16:08:29.163Z,7.11
2023-03-01T16:10:58.857Z,7.02
2023-03-01T16:13:29.552Z,6.98
2023-03-01T16:15:58.398Z,6.95
2023-03-01T16:18:27.549Z,6.88
2023-03-01T16:20:56.348Z,6.82
2023-03-01T16:23:26.034Z,6.79
2023-03-01T16:25:54.810Z,6.70
2023-03-01T16:28:23.997Z,6.60
2023-03-01T16:30:54.704Z,6.60
2023-03-01T16:33:30.604Z,6.55
2023-03-01T16:36:04.070Z,6.53
2023-03-01T16:38:35.713Z,6.47
2023-03-01T16:41:04.736Z,6.44
2023-03-01T16:43:34.143Z,6.44
2023-03-01T16:46:12.390Z,6.44
2023-03-01T16:48:41.676Z,6.41
2023-03-01T16:51:11.048Z,6.39
2023-03-01T16:53:41.959Z,6.31
2023-03-01T16:56:14.077Z,6.32
2023-03-01T16:58:43.994Z,6.29
2023-03-01T17:01:17.822Z,6.28
2023-03-01T17:03:49.768Z,6.27
2023-03-01T17:06:24.545Z,6.25
2023-03-01T17:08:53.665Z,6.20
2023-03-01T17:11:22.842Z,6.17
2023-03-01T17:13:51.948Z,6.16
2023-03-01T17:16:23.472Z,6.16
2023-03-01T17:18:52.789Z,6.13
2023-03-01T17:21:22.525Z,6.06
2023-03-01T17:23:52.998Z,6.02
2023-03-01T17:26:21.847Z,5.93
2023-03-01T17:28:52.361Z,5.91
2023-03-01T17:31:23.806Z,5.91
2023-03-01T17:33:52.976Z,5.88
2023-03-01T17:36:21.900Z,5.81
2023-03-01T17:38:51.062Z,5.75
2023-03-01T17:41:21.891Z,5.70
2023-03-01T17:43:51.053Z,5.62
2023-03-01T17:46:19.907Z,5.54
2023-03-01T17:48:50.958Z,5.48
2023-03-01T17:51:19.863Z,5.41
2023-03-01T17:53:49.171Z,5.36
2023-03-01T17:56:18.446Z,5.31
2023-03-01T17:58:47.742Z,5.23
2023-03-01T18:01:20.662Z,5.16
2023-03-01T18:03:53.024Z,5.08
2023-03-01T18:06:25.113Z,5.01
2023-03-01T18:08:55.235Z,4.92
2023-03-01T18:11:26.333Z,4.82
2023-03-01T18:13:56.287Z,4.74
2023-03-01T18:16:25.522Z,4.66
2023-03-01T18:18:58.413Z,4.64
2023-03-01T18:21:27.674Z,4.56
2023-03-01T18:23:56.991Z,4.49
2023-03-01T18:26:27.720Z,4.39
2023-03-01T18:29:01.250Z,4.30
2023-03-01T18:31:33.437Z,4.21
2023-03-01T18:34:04.743Z,4.16
2023-03-01T18:36:36.708Z,4.05
2023-03-01T18:39:08.916Z,3.95
2023-03-01T18:41:38.666Z,3.86
2023-03-01T18:44:08.376Z,3.81
2023-03-01T18:46:39.098Z,3.78
2023-03-01T18:49:10.228Z,3.72
2023-03-01T18:51:39.072Z,3.69
2023-03-01T18:54:08.462Z,3.68
2023-03-01T18:56:37.253Z,3.62
2023-03-01T18:59:06.462Z,3.61
2023-03-01T19:01:37.526Z,3.55
2023-03-01T19:04:09.174Z,3.51
2023-03-01T19:06:40.156Z,3.46
2023-03-01T19:09:11.432Z,3.45
2023-03-01T19:11:40.707Z,3.44
2023-03-01T19:14:09.807Z,3.41
2023-03-01T19:16:38.997Z,3.34
2023-03-01T19:19:10.133Z,3.31
2023-03-01T19:21:40.401Z,3.29
2023-03-01T19:24:11.084Z,3.28
2023-03-01T19:26:41.813Z,3.26
2023-03-01T19:29:11.694Z,3.25
2023-03-01T19:31:40.649Z,3.22
2023-03-01T19:34:11.899Z,3.21
2023-03-01T19:36:44.519Z,3.17
2023-03-01T19:39:15.468Z,3.15
2023-03-01T19:41:46.113Z,3.12
2023-03-01T19:44:16.922Z,3.13
2023-03-01T19:46:45.784Z,3.05
2023-03-01T19:49:15.058Z,3.00
2023-03-01T19:51:45.258Z,2.97
2023-03-01T19:54:14.867Z,2.91
2023-03-01T19:56:43.693Z,2.87
2023-03-01T19:59:12.813Z,2.89
2023-03-01T20:01:43.321Z,2.86
2023-03-01T20:04:13.967Z,2.84
2023-03-01T20:06:46.610Z,2.85
2023-03-01T20:09:21.773Z,2.87
2023-03-01T20:11:51.899Z,2.83
2023-03-01T20:14:23.913Z,2.80
2023-03-01T20:16:53.988Z,2.77
2023-03-01T20:19:23.618Z,2.75
2023-03-01T20:21:53.850Z,2.71
2023-03-01T20:24:22.940Z,2.68
2023-03-01T20:26:51.804Z,2.66
2023-03-01T20:29:21.808Z,2.65
2023-03-01T20:31:50.819Z,2.60
2023-03-01T20:34:20.021Z,2.58
2023-03-01T20:36:49.245Z,2.55
2023-03-01T20:39:19.804Z,2.51
2023-03-01T20:41:48.674Z,2.48
2023-03-01T20:44:17.742Z,2.46
2023-03-01T20:46:46.795Z,2.42
2023-03-01T20:49:16.534Z,2.41
2023-03-01T20:51:45.428Z,2.39
2023-03-01T20:54:14.847Z,2.37
2023-03-01T20:56:45.030Z,2.35
2023-03-01T20:59:15.056Z,2.32
2023-03-01T21:01:43.944Z,2.33
2023-03-01T21:04:13.232Z,2.28
2023-03-01T21:06:42.965Z,2.35
2023-03-01T21:09:13.226Z,2.32
2023-03-01T21:11:42.071Z,2.34
2023-03-01T21:14:13.201Z,2.33
2023-03-01T21:16:42.070Z,2.31
2023-03-01T21:19:11.179Z,2.32
2023-03-01T21:21:40.018Z,2.31
2023-03-01T21:24:10.553Z,2.31
2023-03-01T21:26:39.765Z,2.29
2023-03-01T21:29:08.815Z,2.26
2023-03-01T21:31:39.028Z,2.27
2023-03-01T21:34:08.221Z,2.25
2023-03-01T21:36:37.292Z,2.23
2023-03-01T21:39:08.106Z,2.20
2023-03-01T21:41:38.826Z,2.17
2023-03-01T21:44:08.531Z,2.16
2023-03-01T21:46:40.628Z,2.14
2023-03-01T21:49:12.532Z,2.12
2023-03-01T21:51:41.686Z,2.10
2023-03-01T21:54:15.234Z,2.12
2023-03-01T21:56:46.281Z,2.07
2023-03-01T21:59:18.926Z,2.05
2023-03-01T22:01:50.424Z,2.05
2023-03-01T22:04:21.481Z,2.06
2023-03-01T22:06:54.364Z,2.03
2023-03-01T22:09:25.107Z,2.03
2023-03-01T22:11:58.731Z,2.00
2023-03-01T22:14:27.879Z,1.96
2023-03-01T22:16:59.064Z,1.97
2023-03-01T22:19:28.846Z,1.96
2023-03-01T22:21:57.688Z,1.93
2023-03-01T22:24:27.257Z,1.92
2023-03-01T22:26:56.333Z,1.87
2023-03-01T22:29:30.106Z,1.85
2023-03-01T22:32:00.985Z,1.85
2023-03-01T22:34:30.750Z,1.82
2023-03-01T22:36:59.742Z,1.80
2023-03-01T22:39:29.157Z,1.78
2023-03-01T22:41:57.943Z,1.79
2023-03-01T22:44:27.108Z,1.76
2023-03-01T22:46:55.940Z,1.76
2023-03-01T22:49:26.474Z,1.77
2023-03-01T22:51:55.293Z,1.74
2023-03-01T22:54:24.334Z,1.73
2023-03-01T22:56:53.659Z,1.70
2023-03-01T22:59:24.176Z,1.69
2023-03-01T23:01:54.728Z,1.67
2023-03-01T23:04:26.085Z,1.66
2023-03-01T23:06:54.935Z,1.64
2023-03-01T23:09:27.737Z,1.58
2023-03-01T23:11:57.672Z,1.62
2023-03-01T23:14:30.079Z,1.60
2023-03-01T23:17:00.737Z,1.59
2023-03-01T23:19:32.129Z,1.57
2023-03-01T23:22:01.465Z,1.59
2023-03-01T23:24:32.468Z,1.60
2023-03-01T23:27:03.256Z,1.58
2023-03-01T23:29:33.157Z,1.57
2023-03-01T23:32:02.890Z,1.59
2023-03-01T23:34:33.468Z,1.59
2023-03-01T23:37:03.333Z,1.58
2023-03-01T23:39:33.322Z,1.60
2023-03-01T23:42:02.124Z,1.58
2023-03-01T23:44:31.261Z,1.55
2023-03-01T23:47:01.030Z,1.54
2023-03-01T23:49:30.370Z,1.52
2023-03-01T23:52:01.520Z,1.47
2023-03-01T23:54:30.736Z,1.43
2023-03-01T23:56:59.663Z,1.42
2023-03-01T23:59:28.786Z,1.44
